Time;durP1;ratioP1;P1;durP2;ratioP2;P2;SDS_P1;SDS_P2;PMS_P1;PMS_P2;Temp;Humidity;BMP_temperature;BMP_pressure;BME280_temperature;BME280_humidity;BME280_pressure;Samples;Min_cycle;Max_cycle;Signal;HPM_P1;HPM_P2
2022/04/23 00:01:28;;;;;;;3.85;3.08;;;;;;;11.32;57.03;97213.34;4088143;28;20207;-55
2022/04/23 00:03:33;;;;;;;5.97;5.47;;;;;;;11.21;57.40;97206.31;4095312;28;20234;-55
2022/04/23 00:05:36;;;;;;;4.28;3.88;;;;;;;11.26;57.18;97209.03;4115743;28;20261;-56
2022/04/23 00:07:38;;;;;;;3.65;3.10;;;;;;;11.27;57.07;97209.81;4084683;29;20211;-56
2022/04/23 00:09:40;;;;;;;4.57;4.18;;;;;;;11.26;57.23;97211.75;4084731;28;20203;-55
2022/04/23 00:11:42;;;;;;;3.95;3.65;;;;;;;11.28;57.01;97212.28;4086120;29;20762;-55
2022/04/23 00:13:44;;;;;;;5.30;4.80;;;;;;;11.12;57.65;97213.50;4090363;29;20231;-55
2022/04/23 00:15:46;;;;;;;5.25;4.18;;;;;;;11.09;57.80;97210.50;4101715;28;20286;-55
2022/04/23 00:17:47;;;;;;;3.65;3.40;;;;;;;10.96;58.16;97205.66;4091980;28;20211;-55
2022/04/23 00:19:49;;;;;;;5.70;5.20;;;;;;;10.94;58.14;97205.16;4090014;28;20329;-55
2022/04/23 00:21:51;;;;;;;6.38;5.78;;;;;;;10.83;58.38;97206.34;4084946;29;20858;-55
2022/04/23 00:23:53;;;;;;;4.68;4.32;;;;;;;10.77;58.68;97204.72;4099813;28;20210;-57
2022/04/23 00:25:55;;;;;;;4.97;4.45;;;;;;;10.83;58.44;97204.41;4091320;28;20268;-56
2022/04/23 00:27:57;;;;;;;4.88;4.38;;;;;;;10.74;58.77;97209.94;4085226;28;20215;-56
2022/04/23 00:29:59;;;;;;;3.75;3.45;;;;;;;10.64;58.87;97205.34;4118024;28;20273;-56
2022/04/23 00:32:05;;;;;;;5.07;4.60;;;;;;;10.60;59.21;97208.91;4089929;28;20199;-56
2022/04/23 00:34:06;;;;;;;4.82;4.43;;;;;;;10.77;58.63;97202.00;4086651;28;21212;-55
2022/04/23 00:36:10;;;;;;;5.20;4.70;;;;;;;10.71;58.90;97205.03;4084946;28;20227;-56
2022/04/23 00:38:12;;;;;;;6.43;5.88;;;;;;;10.67;58.79;97209.44;4098873;28;20211;-56
2022/04/23 00:40:17;;;;;;;5.55;5.05;;;;;;;10.57;59.08;97214.97;4098310;28;20297;-54
2022/04/23 00:42:19;;;;;;;5.05;4.65;;;;;;;10.63;59.07;97211.94;4083575;29;20214;-54
2022/04/23 00:44:21;;;;;;;6.18;5.30;;;;;;;10.57;59.10;97209.50;4086112;29;20208;-56
2022/04/23 00:46:22;;;;;;;4.63;4.22;;;;;;;10.68;58.77;97211.09;4084541;29;20239;-55
2022/04/23 00:48:26;;;;;;;4.55;4.18;;;;;;;10.74;58.81;97204.47;4100834;28;20215;-55
2022/04/23 00:50:28;;;;;;;5.85;5.35;;;;;;;10.66;58.82;97207.78;4084926;28;20245;-55
2022/04/23 00:52:31;;;;;;;4.75;4.35;;;;;;;10.59;58.93;97204.53;4084727;28;20234;-58
2022/04/23 00:54:33;;;;;;;5.78;5.28;;;;;;;10.69;58.77;97212.72;4082656;29;20771;-56
2022/04/23 00:56:36;;;;;;;6.07;5.57;;;;;;;10.78;58.71;97195.41;4087058;28;20231;-55
2022/04/23 00:58:38;;;;;;;6.72;6.13;;;;;;;10.63;58.89;97208.38;4114749;28;20654;-58
2022/04/23 01:00:41;;;;;;;5.20;4.75;;;;;;;10.60;58.93;97207.00;4084626;29;20211;-57
2022/04/23 01:02:42;;;;;;;4.55;4.20;;;;;;;10.68;58.69;97205.63;4113109;28;20679;-55
2022/04/23 01:04:44;;;;;;;5.22;4.72;;;;;;;10.77;58.53;97203.91;4087578;28;20276;-56
2022/04/23 01:06:46;;;;;;;6.32;5.82;;;;;;;10.61;58.93;97210.56;4120402;28;20211;-56
2022/04/23 01:08:48;;;;;;;5.80;5.28;;;;;;;10.77;58.25;97198.44;4108716;28;20202;-56
2022/04/23 01:10:50;;;;;;;5.53;5.03;;;;;;;10.61;58.92;97205.91;4088976;28;20203;-56
2022/04/23 01:12:53;;;;;;;5.82;4.85;;;;;;;10.62;58.81;97207.53;4076608;29;20296;-59
2022/04/23 01:15:01;;;;;;;5.57;5.05;;;;;;;10.60;59.11;97208.91;4092092;29;20215;-54
2022/04/23 01:17:03;;;;;;;6.10;5.50;;;;;;;10.44;59.65;97201.91;4087186;28;20290;-56
2022/04/23 01:19:05;;;;;;;6.57;5.93;;;;;;;10.53;59.23;97202.94;4088380;28;20666;-54
2022/04/23 01:21:10;;;;;;;6.43;5.90;;;;;;;10.52;59.38;97201.31;4118997;28;20650;-55
2022/04/23 01:23:11;;;;;;;5.63;5.13;;;;;;;10.50;59.37;97203.50;4086548;29;20215;-56
2022/04/23 01:25:14;;;;;;;5.47;4.97;;;;;;;10.40;59.39;97203.53;4086432;28;20310;-55
2022/04/23 01:27:16;;;;;;;6.18;5.55;;;;;;;10.44;59.37;97202.72;4086974;28;20208;-56
2022/04/23 01:29:18;;;;;;;4.75;4.35;;;;;;;10.56;59.23;97196.91;4100477;28;20214;-56
2022/04/23 01:31:20;;;;;;;5.38;4.97;;;;;;;10.54;59.34;97201.88;4094221;29;20211;-55
2022/04/23 01:33:22;;;;;;;7.10;6.50;;;;;;;10.36;59.84;97195.09;4102931;28;20237;-55
2022/04/23 01:35:23;;;;;;;6.35;5.68;;;;;;;10.50;59.50;97193.41;4086466;29;20653;-56
2022/04/23 01:37:25;;;;;;;5.43;4.93;;;;;;;10.34;59.57;97188.28;4074985;29;20235;-57
2022/04/23 01:39:27;;;;;;;6.25;5.75;;;;;;;10.40;59.52;97187.16;4092410;29;20219;-56
2022/04/23 01:41:28;;;;;;;6.00;5.50;;;;;;;10.36;59.59;97191.56;4088584;29;20678;-55
2022/04/23 01:43:30;;;;;;;5.82;5.32;;;;;;;10.43;59.63;97181.13;4089197;28;20204;-57
2022/04/23 01:45:32;;;;;;;5.22;4.82;;;;;;;10.37;59.85;97182.25;4101590;28;20287;-55
2022/04/23 01:47:34;;;;;;;4.43;4.03;;;;;;;10.39;59.48;97185.50;4088319;29;20212;-54
2022/04/23 01:49:35;;;;;;;5.13;4.72;;;;;;;10.29;59.66;97186.38;4101552;28;20612;-55
2022/04/23 01:51:37;;;;;;;5.55;5.13;;;;;;;10.38;59.82;97181.16;4092388;29;20208;-55
2022/04/23 01:53:39;;;;;;;6.25;5.75;;;;;;;10.35;59.89;97179.00;4089075;29;20239;-54
2022/04/23 01:55:41;;;;;;;5.45;4.75;;;;;;;10.32;59.85;97185.84;4094725;29;20227;-55
2022/04/23 01:57:42;;;;;;;5.75;5.25;;;;;;;10.17;60.51;97179.63;4119617;28;20206;-54
2022/04/23 01:59:44;;;;;;;5.20;4.90;;;;;;;10.14;60.30;97180.19;4103109;28;20218;-55
2022/04/23 02:01:46;;;;;;;7.43;6.15;;;;;;;9.99;60.87;97182.91;4092338;28;20303;-54
2022/04/23 02:03:51;;;;;;;5.82;5.32;;;;;;;9.98;60.91;97182.13;4086211;28;20364;-55
2022/04/23 02:05:53;;;;;;;6.85;5.28;;;;;;;10.07;60.76;97179.69;4086191;29;20228;-54
2022/04/23 02:07:55;;;;;;;5.03;4.63;;;;;;;9.94;61.12;97191.16;4093757;29;20250;-55
2022/04/23 02:09:56;;;;;;;7.05;6.35;;;;;;;9.78;61.34;97189.56;4074682;29;20256;-55
2022/04/23 02:11:58;;;;;;;6.25;5.65;;;;;;;9.69;61.97;97191.22;4086876;29;20204;-56
2022/04/23 02:14:02;;;;;;;6.82;6.20;;;;;;;9.80;61.30;97187.34;4085926;29;20224;-54
2022/04/23 02:16:04;;;;;;;5.95;4.93;;;;;;;9.96;60.90;97186.22;4087818;29;20227;-55
2022/04/23 02:18:06;;;;;;;6.47;5.70;;;;;;;10.02;60.87;97193.31;4092947;29;20312;-57
2022/04/23 02:20:10;;;;;;;5.43;4.93;;;;;;;9.83;61.59;97192.28;4117363;28;20217;-57
2022/04/23 02:22:12;;;;;;;5.45;4.88;;;;;;;9.76;61.88;97192.56;4088874;29;20216;-58
2022/04/23 02:24:15;;;;;;;6.07;5.57;;;;;;;9.71;61.86;97194.50;4088884;29;20242;-56
2022/04/23 02:26:17;;;;;;;6.35;5.72;;;;;;;9.85;61.56;97193.66;4101937;28;20327;-55
2022/04/23 02:28:19;;;;;;;8.32;6.22;;;;;;;9.88;61.18;97190.34;4085663;28;20238;-56
2022/04/23 02:30:22;;;;;;;6.38;5.78;;;;;;;9.94;60.98;97191.16;4087096;29;20227;-59
2022/04/23 02:32:23;;;;;;;5.13;4.13;;;;;;;10.08;60.96;97189.50;4100223;28;20246;-56
2022/04/23 02:34:25;;;;;;;7.30;6.65;;;;;;;9.84;61.51;97193.91;4087077;29;20256;-57
2022/04/23 02:36:27;;;;;;;6.35;5.78;;;;;;;9.65;62.21;97192.84;4119592;28;20349;-56
2022/04/23 02:38:28;;;;;;;7.35;6.75;;;;;;;9.81;61.57;97200.75;4094489;29;20211;-58
2022/04/23 02:40:30;;;;;;;7.45;6.85;;;;;;;9.90;61.46;97187.34;4103876;28;20211;-55
2022/04/23 02:42:33;;;;;;;5.50;5.00;;;;;;;9.86;61.33;97188.97;4092520;29;20258;-57
2022/04/23 02:44:35;;;;;;;6.45;5.95;;;;;;;9.84;61.90;97188.44;4084341;28;20702;-57
2022/04/23 02:46:38;;;;;;;5.88;5.13;;;;;;;9.77;61.93;97193.38;4102573;28;20237;-56
2022/04/23 02:48:40;;;;;;;7.75;6.65;;;;;;;9.77;61.91;97193.38;4089938;28;20232;-60
2022/04/23 02:50:41;;;;;;;5.22;4.80;;;;;;;9.74;61.66;97194.75;4086800;28;20215;-58
2022/04/23 02:52:43;;;;;;;6.25;5.57;;;;;;;9.82;61.44;97190.66;4093799;29;20208;-58
2022/04/23 02:54:46;;;;;;;5.45;5.03;;;;;;;9.90;61.30;97193.63;4099917;28;20254;-59
2022/04/23 02:56:49;;;;;;;6.25;5.65;;;;;;;9.92;61.33;97190.59;4089032;29;20227;-57
2022/04/23 02:58:50;;;;;;;7.05;6.50;;;;;;;9.93;61.36;97192.22;4116695;28;20211;-58
2022/04/23 03:00:55;;;;;;;6.50;5.97;;;;;;;9.87;61.43;97191.44;4083825;29;20570;-60
2022/04/23 03:02:56;;;;;;;6.65;6.05;;;;;;;9.90;61.40;97188.16;4089664;29;20669;-58
2022/04/23 03:04:59;;;;;;;6.40;5.80;;;;;;;9.53;62.61;97186.88;4087591;29;20207;-57
2022/04/23 03:07:02;;;;;;;6.35;5.93;;;;;;;9.57;62.38;97194.25;4091988;29;20204;-58
2022/04/23 03:09:04;;;;;;;6.28;5.68;;;;;;;9.53;62.75;97197.78;4089158;28;20208;-57
2022/04/23 03:11:06;;;;;;;7.32;6.30;;;;;;;9.47;63.04;97194.25;4087549;28;20255;-58
2022/04/23 03:13:08;;;;;;;6.65;6.05;;;;;;;9.61;62.25;97192.59;4116926;28;20222;-58
2022/04/23 03:15:13;;;;;;;6.88;6.30;;;;;;;9.62;62.26;97190.69;4090468;29;20652;-59
2022/04/23 03:17:14;;;;;;;6.70;6.10;;;;;;;9.60;62.73;97195.59;4084394;28;20208;-57
2022/04/23 03:19:16;;;;;;;6.18;5.57;;;;;;;9.61;62.61;97189.06;4088496;29;20220;-55
2022/04/23 03:21:17;;;;;;;6.25;5.65;;;;;;;9.65;62.72;97195.59;4088096;28;20245;-59
2022/04/23 03:23:20;;;;;;;7.03;6.35;;;;;;;9.53;62.85;97192.34;4089383;28;20274;-57
2022/04/23 03:25:22;;;;;;;5.72;5.25;;;;;;;9.61;62.69;97189.88;4114413;28;20913;-56
2022/04/23 03:27:24;;;;;;;6.75;6.07;;;;;;;9.47;63.08;97187.97;4085238;28;20642;-59
2022/04/23 03:29:25;;;;;;;6.03;5.43;;;;;;;9.47;63.37;97188.81;4095702;28;20568;-59
2022/04/23 03:31:27;;;;;;;7.75;7.10;;;;;;;9.48;62.97;97189.63;4091437;28;20238;-60
2022/04/23 03:33:32;;;;;;;6.55;6.05;;;;;;;9.49;63.31;97196.72;4087107;28;20207;-57
2022/04/23 03:35:34;;;;;;;5.15;4.65;;;;;;;9.56;62.54;97198.06;4118374;28;20226;-56
2022/04/23 03:37:40;;;;;;;6.97;6.32;;;;;;;9.61;62.80;97195.31;4117487;28;20210;-57
2022/04/23 03:39:41;;;;;;;6.55;5.82;;;;;;;9.44;63.46;97189.38;4086450;29;20223;-58
2022/04/23 03:41:44;;;;;;;6.63;6.00;;;;;;;9.19;64.55;97194.00;4085435;29;20258;-60
2022/04/23 03:43:45;;;;;;;4.78;4.32;;;;;;;9.23;64.36;97193.19;4098786;28;20219;-56
2022/04/23 03:45:47;;;;;;;6.13;5.63;;;;;;;9.25;64.00;97184.72;4117068;28;20229;-56
2022/04/23 03:47:49;;;;;;;6.10;5.55;;;;;;;9.35;63.54;97187.47;4089476;29;20219;-59
2022/04/23 03:49:50;;;;;;;6.32;5.72;;;;;;;9.20;64.21;97188.28;4089767;28;20286;-59
2022/04/23 03:51:52;;;;;;;6.60;6.03;;;;;;;9.23;63.88;97187.72;4100858;28;20262;-58
2022/04/23 03:53:54;;;;;;;9.02;5.70;;;;;;;9.20;64.18;97188.28;4102918;28;20203;-56
2022/04/23 03:55:56;;;;;;;6.80;4.97;;;;;;;9.11;64.25;97184.47;4092490;29;20227;-58
2022/04/23 03:58:01;;;;;;;7.00;6.40;;;;;;;9.09;64.60;97191.28;4100549;28;20231;-57
2022/04/23 04:00:04;;;;;;;7.10;6.50;;;;;;;8.91;64.92;97191.81;4115754;28;20576;-57
2022/04/23 04:02:06;;;;;;;5.40;4.53;;;;;;;9.01;64.65;97189.13;4117324;28;20660;-57
2022/04/23 04:04:08;;;;;;;6.57;5.95;;;;;;;9.10;64.47;97182.00;4084280;29;20204;-57
2022/04/23 04:06:10;;;;;;;8.57;7.93;;;;;;;9.09;64.63;97188.56;4085092;29;20270;-59
2022/04/23 04:08:12;;;;;;;5.90;5.28;;;;;;;9.17;64.12;97188.84;4099430;28;20206;-55
2022/04/23 04:10:16;;;;;;;6.82;6.13;;;;;;;8.97;64.67;97188.00;4083919;29;20215;-58
2022/04/23 04:12:17;;;;;;;7.60;5.93;;;;;;;9.00;65.15;97190.19;4085843;29;20204;-57
2022/04/23 04:14:19;;;;;;;6.53;6.03;;;;;;;8.93;65.00;97181.44;4099425;28;20238;-58
2022/04/23 04:16:22;;;;;;;6.22;5.50;;;;;;;9.06;64.22;97183.63;4114307;28;20672;-59
2022/04/23 04:18:24;;;;;;;7.05;5.32;;;;;;;9.09;64.12;97185.84;4086375;29;20231;-58
2022/04/23 04:20:26;;;;;;;5.85;5.32;;;;;;;9.01;65.08;97189.13;4088368;29;20318;-57
2022/04/23 04:22:29;;;;;;;7.00;6.40;;;;;;;9.11;64.60;97198.13;4087051;28;20278;-58
2022/04/23 04:24:31;;;;;;;6.90;6.25;;;;;;;8.87;64.71;97188.00;4085244;28;20208;-58
2022/04/23 04:26:33;;;;;;;5.47;4.97;;;;;;;8.87;65.18;97188.00;4087299;28;20226;-59
2022/04/23 04:28:35;;;;;;;6.18;5.65;;;;;;;8.77;65.46;97188.00;4086515;29;20404;-55
2022/04/23 04:32:57;;;;;;;6.50;5.85;;;;;;;8.73;65.49;97192.34;4087695;29;20662;-59
2022/04/23 04:34:59;;;;;;;7.22;6.63;;;;;;;8.49;66.42;97183.03;4101763;28;20227;-58
2022/04/23 04:37:06;;;;;;;7.75;6.93;;;;;;;8.50;66.70;97187.41;4115261;28;20206;-56
2022/04/23 04:39:08;;;;;;;7.57;6.88;;;;;;;8.51;66.57;97178.13;4117370;28;20252;-58
2022/04/23 04:41:10;;;;;;;7.15;6.47;;;;;;;8.42;67.46;97188.75;4087866;29;20295;-57
2022/04/23 04:43:11;;;;;;;6.70;6.10;;;;;;;8.47;67.08;97183.31;4118015;28;20217;-59
2022/04/23 04:45:14;;;;;;;6.40;5.80;;;;;;;8.37;67.65;97177.00;4119547;28;20222;-58
2022/04/23 04:47:16;;;;;;;10.15;6.65;;;;;;;8.29;67.46;97177.56;4093917;29;20219;-57
2022/04/23 04:49:18;;;;;;;6.50;5.90;;;;;;;8.29;67.77;97186.53;4094013;29;20211;-58
2022/04/23 04:51:20;;;;;;;6.90;6.20;;;;;;;8.20;68.12;97188.13;4115861;28;20273;-59
2022/04/23 04:53:22;;;;;;;7.22;6.53;;;;;;;8.41;67.66;97189.84;4090976;29;20219;-59
2022/04/23 04:55:23;;;;;;;7.50;6.90;;;;;;;8.34;67.97;97194.72;4103154;28;20240;-57
2022/04/23 04:57:25;;;;;;;6.65;6.15;;;;;;;8.31;68.35;97194.44;4104252;28;20211;-57
2022/04/23 04:59:27;;;;;;;7.40;6.78;;;;;;;8.34;67.85;97188.47;4120830;28;20679;-59
2022/04/23 05:01:29;;;;;;;7.50;6.35;;;;;;;8.44;68.30;97191.22;4087037;29;20204;-58
2022/04/23 05:03:31;;;;;;;6.60;6.00;;;;;;;8.43;67.96;97197.75;4090840;28;20218;-59
2022/04/23 05:05:32;;;;;;;5.47;5.05;;;;;;;8.34;68.59;97192.00;4096249;29;20226;-58
2022/04/23 05:07:34;;;;;;;7.13;6.45;;;;;;;8.33;68.85;97194.97;4089108;29;20203;-56
2022/04/23 05:09:36;;;;;;;9.98;9.02;;;;;;;8.33;68.76;97195.81;4094327;28;20698;-56
2022/04/23 05:11:37;;;;;;;6.43;5.93;;;;;;;8.42;69.15;97196.13;4118527;28;20749;-58
2022/04/23 05:13:39;;;;;;;7.55;6.60;;;;;;;8.39;68.59;97194.75;4103416;28;20921;-57
2022/04/23 05:15:41;;;;;;;6.38;5.85;;;;;;;8.50;68.11;97204.56;4120227;28;20230;-56
2022/04/23 05:17:42;;;;;;;6.10;5.50;;;;;;;8.58;68.01;97203.22;4100266;28;20226;-58
2022/04/23 05:19:44;;;;;;;8.15;7.35;;;;;;;8.58;67.90;97201.34;4087785;28;20226;-58
2022/04/23 05:21:46;;;;;;;6.70;6.20;;;;;;;8.72;67.63;97207.06;4101572;28;20225;-58
2022/04/23 05:23:48;;;;;;;7.07;6.38;;;;;;;8.59;68.06;97215.78;4104822;28;20202;-56
2022/04/23 05:25:49;;;;;;;8.73;7.93;;;;;;;8.89;67.58;97216.63;4103677;28;20222;-59
2022/04/23 05:27:51;;;;;;;8.40;7.43;;;;;;;8.95;67.58;97212.81;4090723;29;20207;-58
2022/04/23 05:29:53;;;;;;;6.97;6.30;;;;;;;8.99;67.87;97218.56;4107284;28;20225;-57
2022/04/23 05:31:54;;;;;;;7.72;6.93;;;;;;;9.09;67.56;97218.59;4084897;28;20208;-57
2022/04/23 05:33:56;;;;;;;8.65;7.13;;;;;;;9.09;67.35;97224.03;4087650;28;20843;-56
2022/04/23 05:35:58;;;;;;;7.70;6.97;;;;;;;9.19;67.17;97224.03;4116929;28;20231;-56
2022/04/23 05:38:00;;;;;;;7.53;6.93;;;;;;;9.35;67.04;97220.22;4088074;29;20695;-57
2022/04/23 05:40:02;;;;;;;8.23;7.50;;;;;;;9.34;66.97;97233.03;4074066;29;20567;-56
2022/04/23 05:42:04;;;;;;;5.95;5.45;;;;;;;9.15;67.38;97231.13;4094194;29;20215;-55
2022/04/23 05:44:06;;;;;;;7.20;6.60;;;;;;;9.29;67.38;97229.50;4119312;28;20265;-57
2022/04/23 05:46:08;;;;;;;6.40;5.85;;;;;;;9.44;67.25;97227.59;4120839;28;20305;-56
2022/04/23 05:48:14;;;;;;;6.13;5.60;;;;;;;9.51;66.92;97221.84;4089850;28;20212;-56
2022/04/23 05:50:16;;;;;;;7.78;6.97;;;;;;;9.59;66.82;97226.72;4087890;29;20223;-56
2022/04/23 05:52:18;;;;;;;6.15;5.57;;;;;;;9.31;67.21;97227.31;4087967;29;20200;-57
2022/04/23 05:54:20;;;;;;;7.32;6.70;;;;;;;9.49;67.39;97232.22;4088792;29;20243;-56
2022/04/23 05:56:21;;;;;;;8.20;6.88;;;;;;;9.66;66.63;97230.00;4071115;29;20259;-57
2022/04/23 05:58:23;;;;;;;10.02;6.93;;;;;;;9.75;66.92;97236.56;4086481;28;20295;-56
2022/04/23 06:00:25;;;;;;;7.13;6.43;;;;;;;9.80;65.96;97231.06;4086998;29;20219;-56
2022/04/23 06:02:27;;;;;;;7.30;6.53;;;;;;;9.74;66.49;97235.72;4074658;29;20216;-56
2022/04/23 06:04:29;;;;;;;7.93;7.20;;;;;;;9.89;66.09;97238.41;4085533;29;20717;-56
2022/04/23 06:06:31;;;;;;;7.50;6.80;;;;;;;9.84;66.40;97241.19;4084543;28;20859;-55
2022/04/23 06:08:32;;;;;;;6.90;6.28;;;;;;;9.98;66.47;97238.69;4085444;28;20566;-56
2022/04/23 06:10:39;;;;;;;7.13;6.43;;;;;;;9.98;66.29;97233.22;4087619;28;20601;-56
2022/04/23 06:12:41;;;;;;;7.38;6.78;;;;;;;10.03;66.58;97238.66;4089312;28;20214;-57
2022/04/23 06:14:44;;;;;;;8.07;7.38;;;;;;;10.11;66.44;97240.84;4090807;28;20266;-59
2022/04/23 06:16:45;;;;;;;7.97;7.20;;;;;;;10.27;65.72;97239.72;4093864;28;20215;-56
2022/04/23 06:18:47;;;;;;;6.47;5.88;;;;;;;10.20;65.86;97236.44;4093215;28;20633;-56
2022/04/23 06:20:49;;;;;;;7.00;6.30;;;;;;;10.46;65.13;97240.72;4101978;28;20244;-56
2022/04/23 06:22:51;;;;;;;7.72;7.03;;;;;;;10.70;64.87;97247.19;4102624;28;20215;-56
2022/04/23 06:24:52;;;;;;;6.97;6.35;;;;;;;10.71;64.52;97246.91;4088751;29;20551;-56
2022/04/23 06:26:54;;;;;;;6.78;6.18;;;;;;;10.82;64.60;97250.41;4089100;29;20210;-55
2022/04/23 06:28:56;;;;;;;6.38;5.80;;;;;;;10.70;64.75;97258.13;4089623;28;20212;-56
2022/04/23 06:30:58;;;;;;;8.57;5.28;;;;;;;10.81;64.82;97248.75;4117818;28;20213;-55
2022/04/23 06:33:00;;;;;;;9.02;8.13;;;;;;;10.77;64.67;97259.44;4089209;28;20212;-55
2022/04/23 06:35:03;;;;;;;6.90;6.28;;;;;;;11.12;64.49;97251.81;4104377;28;20282;-55
2022/04/23 06:37:05;;;;;;;5.75;5.25;;;;;;;11.19;63.92;97248.78;4090925;28;20204;-54
2022/04/23 06:39:07;;;;;;;6.47;5.88;;;;;;;11.13;64.33;97249.91;4102121;28;20231;-54
2022/04/23 06:41:09;;;;;;;5.55;5.05;;;;;;;10.92;64.42;97254.69;4114963;28;20738;-54
2022/04/23 06:43:10;;;;;;;6.20;5.60;;;;;;;11.02;64.50;97254.63;4074645;29;20670;-59
2022/04/23 06:45:12;;;;;;;7.35;6.80;;;;;;;11.00;64.43;97256.84;4084815;28;20938;-57
2022/04/23 06:47:14;;;;;;;12.07;6.82;;;;;;;11.02;64.83;97257.38;4085795;29;20208;-61
2022/04/23 06:49:16;;;;;;;7.25;6.38;;;;;;;10.93;64.46;97252.78;4101587;28;20235;-57
2022/04/23 06:51:18;;;;;;;6.95;6.30;;;;;;;11.11;64.43;97255.66;4086770;28;21737;-57
2022/04/23 06:53:19;;;;;;;6.97;6.32;;;;;;;11.32;64.06;97257.16;4119418;28;20207;-57
2022/04/23 06:55:21;;;;;;;6.43;5.85;;;;;;;11.29;64.15;97252.25;4089809;29;20676;-56
2022/04/23 06:57:23;;;;;;;5.30;4.80;;;;;;;11.44;64.08;97249.38;4088109;29;20208;-54
2022/04/23 06:59:29;;;;;;;6.82;6.32;;;;;;;11.49;63.67;97246.63;4087508;28;20230;-58
2022/04/23 07:01:31;;;;;;;6.65;6.05;;;;;;;11.23;64.59;97244.38;4115730;28;20317;-55
2022/04/23 07:03:32;;;;;;;6.82;5.70;;;;;;;11.61;63.98;97249.84;4086198;29;20395;-56
2022/04/23 07:05:34;;;;;;;5.90;5.38;;;;;;;11.76;63.33;97255.16;4112552;28;20229;-56
2022/04/23 07:07:36;;;;;;;7.10;6.45;;;;;;;11.78;63.21;97252.94;4083917;28;20309;-56
2022/04/23 07:09:38;;;;;;;5.60;5.07;;;;;;;11.80;63.64;97258.97;4088024;28;20219;-58
2022/04/23 07:11:39;;;;;;;6.72;6.20;;;;;;;11.87;63.20;97248.50;4090498;29;20212;-55
2022/04/23 07:13:44;;;;;;;6.97;6.35;;;;;;;11.99;63.12;97250.84;4097911;28;20211;-55
2022/04/23 07:15:48;;;;;;;6.22;5.63;;;;;;;11.91;63.00;97251.47;4085651;28;20223;-61
2022/04/23 07:17:51;;;;;;;6.03;5.43;;;;;;;11.95;63.22;97256.09;4080963;28;20208;-58
2022/04/23 07:19:56;;;;;;;5.47;5.05;;;;;;;11.79;62.75;97257.34;4085856;28;20630;-55
2022/04/23 07:21:59;;;;;;;5.75;5.32;;;;;;;11.92;63.37;97250.38;4117320;28;20205;-54
2022/04/23 07:24:05;;;;;;;6.50;5.90;;;;;;;11.91;63.08;97255.00;4084992;29;20209;-57
2022/04/23 07:26:08;;;;;;;5.00;4.50;;;;;;;12.29;63.00;97256.81;4086782;29;20235;-55
2022/04/23 07:28:13;;;;;;;5.47;5.03;;;;;;;12.42;61.57;97255.28;4102462;28;20219;-54
2022/04/23 07:30:15;;;;;;;4.90;4.50;;;;;;;12.39;62.16;97251.22;4105569;28;20203;-56
2022/04/23 07:32:19;;;;;;;4.82;4.13;;;;;;;12.57;61.54;97250.44;4111017;28;20295;-54
2022/04/23 07:39:02;;;;;;;5.93;5.43;;;;;;;12.41;61.16;97254.47;4085863;29;20215;-55
2022/04/23 07:41:04;;;;;;;5.95;5.18;;;;;;;12.82;61.04;97260.25;4089262;29;20203;-57
2022/04/23 07:43:10;;;;;;;5.15;4.75;;;;;;;12.68;60.28;97264.84;4098609;28;20214;-56
2022/04/23 07:45:12;;;;;;;6.22;5.72;;;;;;;12.89;60.38;97261.53;4110522;28;20705;-56
2022/04/23 07:47:13;;;;;;;5.25;4.85;;;;;;;13.19;60.55;97265.81;4095153;29;20285;-57
2022/04/23 07:49:15;;;;;;;5.00;4.60;;;;;;;13.71;60.26;97254.56;4085670;29;20208;-54
2022/04/23 07:51:18;;;;;;;5.43;4.93;;;;;;;13.66;58.85;97249.97;4117294;28;20237;-56
2022/04/23 07:53:20;;;;;;;5.03;4.63;;;;;;;13.59;58.40;97255.03;4087704;29;20222;-57
2022/04/23 07:55:22;;;;;;;6.13;4.43;;;;;;;13.71;58.59;97258.09;4119623;28;20760;-55
2022/04/23 07:57:23;;;;;;;4.22;3.83;;;;;;;13.65;58.92;97250.25;4087944;28;20203;-55
2022/04/23 07:59:25;;;;;;;5.32;4.72;;;;;;;13.78;58.40;97247.53;4118288;28;20261;-54
2022/04/23 08:01:27;;;;;;;4.80;4.38;;;;;;;13.74;58.36;97249.25;4086354;29;20211;-56
2022/04/23 08:03:29;;;;;;;3.75;3.45;;;;;;;13.85;58.31;97258.16;4088274;29;20769;-54
2022/04/23 08:05:32;;;;;;;5.15;4.65;;;;;;;13.99;57.05;97254.34;4083786;29;20230;-54
2022/04/23 08:07:33;;;;;;;4.88;4.47;;;;;;;14.23;56.89;97254.19;4088708;29;20211;-54
2022/04/23 08:09:39;;;;;;;3.67;3.38;;;;;;;13.85;57.65;97255.41;4070776;29;20208;-53
2022/04/23 08:11:42;;;;;;;4.28;3.88;;;;;;;13.79;57.62;97254.69;4084892;28;20230;-53
2022/04/23 08:13:44;;;;;;;5.78;5.28;;;;;;;13.55;57.88;97253.97;4090384;28;20869;-53
2022/04/23 08:15:46;;;;;;;4.15;3.75;;;;;;;13.53;57.92;97250.72;4085620;28;20239;-54
2022/04/23 08:17:48;;;;;;;4.30;3.95;;;;;;;13.65;57.65;97242.84;4084766;28;20219;-53
2022/04/23 08:19:50;;;;;;;4.10;3.80;;;;;;;13.82;57.88;97239.50;4082483;28;20870;-52
2022/04/23 08:21:51;;;;;;;4.68;4.25;;;;;;;13.98;57.69;97238.91;4084043;29;20211;-53
2022/04/23 08:23:53;;;;;;;3.55;3.25;;;;;;;13.54;57.42;97235.88;4081771;28;20215;-53
2022/04/23 08:25:58;;;;;;;3.33;3.03;;;;;;;13.86;56.94;97241.38;4089075;28;20231;-54
2022/04/23 08:30:34;;;;;;;4.25;3.95;;;;;;;14.11;56.47;97243.63;4087869;29;20647;-54
2022/04/23 08:32:36;;;;;;;3.88;3.55;;;;;;;14.41;56.13;97245.84;4092702;29;20258;-53
2022/04/23 08:34:37;;;;;;;3.35;3.05;;;;;;;14.40;55.71;97244.22;4102608;28;20231;-54
2022/04/23 08:36:39;;;;;;;4.40;4.10;;;;;;;14.08;56.15;97244.25;4093607;29;20231;-55
2022/04/23 08:38:41;;;;;;;3.25;2.97;;;;;;;14.11;55.89;97251.09;4101127;28;20221;-55
2022/04/23 08:40:44;;;;;;;4.82;4.43;;;;;;;14.24;56.68;97256.63;4084752;29;20207;-56
2022/04/23 08:42:46;;;;;;;3.63;3.33;;;;;;;14.15;56.63;97252.09;4104849;28;20211;-55
2022/04/23 08:44:47;;;;;;;3.95;3.65;;;;;;;14.09;56.37;97254.13;4094541;28;20218;-53
2022/04/23 08:46:51;;;;;;;3.50;3.20;;;;;;;14.22;56.10;97250.63;4098464;28;20204;-54
2022/04/23 08:49:05;;;;;;;3.20;3.00;;;;;;;14.00;56.48;97239.44;4100567;28;20206;-54
2022/04/23 08:51:11;;;;;;;4.25;3.78;;;;;;;14.07;56.85;97242.63;4105249;28;20203;-54
2022/04/23 08:53:17;;;;;;;4.65;4.28;;;;;;;14.28;56.22;97251.31;4103917;28;20222;-54
2022/04/23 08:55:34;;;;;;;4.75;3.78;;;;;;;13.88;56.75;97258.38;4114749;28;20234;-52
2022/04/23 08:57:38;;;;;;;3.55;3.35;;;;;;;13.67;57.31;97256.25;4116580;28;20210;-53
2022/04/23 08:59:42;;;;;;;4.05;3.75;;;;;;;13.38;58.15;97248.19;4093256;28;20285;-54
2022/04/23 09:01:44;;;;;;;3.05;2.75;;;;;;;13.44;57.71;97244.25;4084890;28;20682;-54
2022/04/23 09:03:46;;;;;;;4.18;3.78;;;;;;;13.61;57.63;97247.28;4068106;29;20658;-53
2022/04/23 09:05:53;;;;;;;4.20;3.83;;;;;;;13.73;57.98;97253.13;4086520;28;20317;-53
2022/04/23 09:07:56;;;;;;;4.28;3.92;;;;;;;13.77;57.29;97245.91;4082085;28;20224;-54
2022/04/23 09:09:58;;;;;;;3.80;3.50;;;;;;;14.03;57.40;97246.28;4085161;28;20212;-55
2022/04/23 09:12:00;;;;;;;4.30;3.97;;;;;;;14.80;56.06;97248.88;4101018;28;20572;-53
2022/04/23 09:14:03;;;;;;;3.65;3.35;;;;;;;14.70;55.71;97243.59;4098838;28;20693;-55
2022/04/23 09:25:37;;;;;;;12.00;4.05;;;;;;;14.98;55.69;97249.88;4085058;28;20246;-54
2022/04/23 09:27:40;;;;;;;15.20;3.92;;;;;;;15.27;55.96;97247.56;4087966;28;20199;-54
2022/04/23 09:29:58;;;;;;;4.07;3.67;;;;;;;15.19;55.59;97251.88;4088223;28;20278;-54
2022/04/23 09:32:12;;;;;;;3.08;2.88;;;;;;;15.33;55.16;97233.38;4087937;28;20211;-54
2022/04/23 09:34:18;;;;;;;3.47;3.17;;;;;;;15.35;54.69;97231.13;4088387;29;20773;-54
2022/04/23 09:36:20;;;;;;;3.42;3.05;;;;;;;15.00;54.85;97245.69;4088601;28;20226;-56
2022/04/23 09:38:22;;;;;;;3.28;2.97;;;;;;;15.03;54.08;97247.81;4086149;28;20215;-54
2022/04/23 09:40:27;;;;;;;3.38;2.88;;;;;;;14.65;55.12;97240.97;4119874;28;20233;-54
2022/04/23 09:42:29;;;;;;;3.53;3.30;;;;;;;14.86;54.67;97252.34;4091207;29;20216;-54
2022/04/23 09:44:30;;;;;;;2.70;2.50;;;;;;;14.82;55.25;97246.63;4092948;29;20718;-55
2022/04/23 09:46:46;;;;;;;3.33;3.03;;;;;;;14.98;54.79;97250.72;4092550;28;20294;-54
2022/04/23 09:49:05;;;;;;;2.95;2.70;;;;;;;15.20;54.35;97253.50;4102196;28;20207;-54
2022/04/23 09:51:25;;;;;;;2.78;2.03;;;;;;;15.47;54.27;97247.09;4089917;29;20211;-53
2022/04/23 09:53:28;;;;;;;2.40;2.20;;;;;;;15.44;53.46;97256.81;4089187;28;20216;-52
2022/04/23 09:55:30;;;;;;;2.55;2.20;;;;;;;15.09;53.80;97249.34;4117873;28;20845;-53
2022/04/23 09:57:32;;;;;;;1.73;1.63;;;;;;;14.73;54.34;97254.00;4075336;29;20240;-53
2022/04/23 09:59:34;;;;;;;3.47;2.83;;;;;;;14.65;55.04;97245.63;4086297;29;20239;-53